Time;durP1;ratioP1;P1;durP2;ratioP2;P2;SDS_P1;SDS_P2;PMS_P1;PMS_P2;Temp;Humidity;BMP_temperature;BMP_pressure;BME280_temperature;BME280_humidity;BME280_pressure;Samples;Min_cycle;Max_cycle;Signal;HPM_P1;HPM_P2
2022/04/29 00:00:44;;;;;;;6.73;5.10;;;6.60;99.90;;;;;;6223538;22;20023;-88
2022/04/29 00:03:12;;;;;;;4.53;3.45;;;7.40;99.90;;;;;;6248007;22;20016;-90
2022/04/29 00:05:40;;;;;;;6.38;3.58;;;6.10;99.90;;;;;;6198634;22;20019;-88
2022/04/29 00:08:08;;;;;;;6.85;3.55;;;6.10;99.90;;;;;;6222240;22;20022;-90
2022/04/29 00:10:34;;;;;;;6.00;4.68;;;6.00;99.90;;;;;;6222628;22;20015;-89
2022/04/29 00:13:01;;;;;;;9.38;3.60;;;6.10;99.90;;;;;;6223089;22;20023;-88
2022/04/29 00:15:35;;;;;;;5.82;3.33;;;6.00;99.90;;;;;;6223373;22;20075;-88
2022/04/29 00:18:01;;;;;;;6.80;3.10;;;7.40;99.90;;;;;;6198448;22;20058;-88
2022/04/29 00:20:30;;;;;;;6.37;3.30;;;5.90;99.90;;;;;;6222712;22;20012;-88
2022/04/29 00:23:00;;;;;;;4.68;3.80;;;4.70;99.90;;;;;;6198761;22;20324;-88
2022/04/29 00:25:26;;;;;;;6.45;4.07;;;6.00;99.90;;;;;;6222390;22;20022;-89
2022/04/29 00:27:52;;;;;;;4.90;3.40;;;6.00;99.90;;;;;;6222704;22;20048;-88
2022/04/29 00:30:33;;;;;;;5.83;3.80;;;6.90;99.90;;;;;;6199366;22;20047;-88
2022/04/29 00:32:59;;;;;;;4.70;3.55;;;7.50;99.90;;;;;;6224890;22;20483;-88
2022/04/29 00:35:28;;;;;;;5.77;2.97;;;6.30;99.90;;;;;;6224107;22;20019;-88
2022/04/29 00:37:56;;;;;;;8.40;3.65;;;7.40;99.90;;;;;;6224904;22;20095;-88
2022/04/29 00:40:30;;;;;;;4.80;3.13;;;7.50;99.90;;;;;;6224404;22;20081;-88
2022/04/29 00:42:59;;;;;;;5.50;3.28;;;5.80;99.90;;;;;;6224764;22;20093;-88
2022/04/29 00:45:25;;;;;;;4.85;3.17;;;7.40;99.90;;;;;;6249804;22;20012;-88
2022/04/29 00:47:52;;;;;;;3.83;3.22;;;6.80;99.90;;;;;;6250366;22;20442;-88
2022/04/29 00:50:27;;;;;;;5.90;2.85;;;6.00;99.90;;;;;;6224544;22;20011;-88
2022/04/29 00:52:55;;;;;;;7.65;3.65;;;6.40;99.90;;;;;;6249728;22;20339;-88
2022/04/29 00:55:22;;;;;;;7.63;3.35;;;5.90;99.90;;;;;;6223799;22;20077;-88
2022/04/29 00:58:07;;;;;;;9.23;3.88;;;5.80;99.90;;;;;;6249490;22;20086;-88
2022/04/29 01:00:35;;;;;;;4.90;3.50;;;5.80;99.90;;;;;;6250274;22;20344;-89
2022/04/29 01:03:03;;;;;;;4.35;2.97;;;5.20;99.90;;;;;;6224446;22;20020;-88
2022/04/29 01:05:31;;;;;;;4.53;3.17;;;6.20;99.90;;;;;;6224923;22;20390;-88
2022/04/29 01:08:04;;;;;;;5.50;3.28;;;6.00;99.90;;;;;;6225399;22;20016;-88
2022/04/29 01:10:34;;;;;;;3.95;3.55;;;6.80;99.90;;;;;;6224703;22;20041;-88
2022/04/29 01:13:03;;;;;;;3.75;3.10;;;5.60;99.90;;;;;;6223834;22;20024;-88
2022/04/29 01:15:32;;;;;;;6.13;4.28;;;5.60;99.90;;;;;;6199679;22;20015;-88
2022/04/29 01:18:09;;;;;;;3.88;3.42;;;6.50;99.90;;;;;;6249861;22;20008;-88
2022/04/29 01:20:38;;;;;;;7.82;4.30;;;5.60;99.90;;;;;;6224718;22;20098;-88
2022/04/29 01:23:15;;;;;;;6.10;3.42;;;5.50;99.90;;;;;;6223914;22;20054;-88
2022/04/29 01:25:41;;;;;;;;;;;6.90;99.90;;;;;;6223460;22;20019;-88
2022/04/29 01:28:07;;;;;;;4.10;2.88;;;5.30;99.90;;;;;;6225097;22;19915;-88
2022/04/29 01:30:33;;;;;;;4.50;3.20;;;6.10;99.90;;;;;;6224075;22;20026;-88
2022/04/29 01:33:00;;;;;;;6.90;4.40;;;7.00;99.90;;;;;;6200016;22;20340;-88
2022/04/29 01:35:26;;;;;;;;;;;5.30;99.90;;;;;;6224376;22;20149;-88
2022/04/29 01:37:54;;;;;;;4.50;3.17;;;5.20;99.90;;;;;;6224752;22;20312;-88
2022/04/29 01:40:22;;;;;;;8.85;3.72;;;5.40;99.90;;;;;;6224317;22;20019;-88
2022/04/29 01:42:48;;;;;;;4.85;4.05;;;5.20;99.90;;;;;;6249667;22;20019;-88
2022/04/29 01:45:16;;;;;;;6.33;3.70;;;5.90;99.90;;;;;;6224642;22;20011;-88
2022/04/29 01:47:42;;;;;;;3.95;3.00;;;5.20;99.90;;;;;;6223556;22;20250;-88
2022/04/29 01:50:13;;;;;;;4.37;3.70;;;5.10;99.90;;;;;;6224530;22;20018;-88
2022/04/29 01:52:41;;;;;;;4.13;3.20;;;5.10;99.90;;;;;;6223886;22;20470;-87
2022/04/29 01:55:07;;;;;;;5.40;3.70;;;6.20;99.90;;;;;;6248652;22;20034;-89
2022/04/29 01:57:35;;;;;;;5.43;3.38;;;5.00;99.90;;;;;;6248297;22;20023;-88
2022/04/29 02:00:02;;;;;;;3.88;3.22;;;5.00;99.90;;;;;;6224918;22;20023;-88
2022/04/29 02:02:27;;;;;;;8.30;4.03;;;4.90;99.90;;;;;;6248690;22;20015;-88
2022/04/29 02:04:55;;;;;;;6.07;3.47;;;4.90;99.90;;;;;;6224743;22;20027;-88
2022/04/29 02:07:21;;;;;;;4.45;3.17;;;5.40;99.90;;;;;;6224483;22;20020;-88
2022/04/29 02:09:47;;;;;;;6.97;3.07;;;4.80;99.90;;;;;;6223716;22;20393;-88
2022/04/29 02:12:15;;;;;;;5.38;3.25;;;6.20;99.90;;;;;;6224299;22;20246;-88
2022/04/29 02:14:42;;;;;;;7.35;3.30;;;6.20;99.90;;;;;;6248830;22;20015;-88
2022/04/29 02:17:11;;;;;;;5.50;3.35;;;5.50;99.90;;;;;;6224006;22;20011;-88
2022/04/29 02:19:37;;;;;;;5.72;3.50;;;4.60;99.90;;;;;;6198898;22;20463;-88
2022/04/29 02:22:05;;;;;;;6.53;3.63;;;4.50;99.90;;;;;;6248920;22;20145;-88
2022/04/29 02:24:31;;;;;;;6.00;4.05;;;4.50;99.90;;;;;;6198839;22;20019;-88
2022/04/29 02:26:59;;;;;;;4.15;3.42;;;4.50;99.90;;;;;;6223315;22;20094;-88
2022/04/29 02:29:25;;;;;;;5.22;3.55;;;4.50;99.90;;;;;;6224251;22;20058;-88
2022/04/29 02:31:52;;;;;;;5.68;3.90;;;5.00;99.90;;;;;;6224101;22;20020;-88
2022/04/29 02:34:18;;;;;;;6.38;3.10;;;5.00;99.90;;;;;;6223436;22;20100;-88
2022/04/29 02:36:44;;;;;;;8.35;3.10;;;4.30;99.90;;;;;;6223524;22;20018;-88
2022/04/29 02:39:10;;;;;;;5.33;3.47;;;6.10;99.90;;;;;;6223870;22;20016;-88
2022/04/29 02:41:38;;;;;;;6.40;3.20;;;5.80;99.90;;;;;;6223727;22;20347;-88
2022/04/29 02:44:04;;;;;;;4.90;3.35;;;6.20;99.90;;;;;;6223785;22;20016;-88
2022/04/29 02:46:30;;;;;;;6.60;3.40;;;4.60;99.90;;;;;;6249099;22;20020;-89
2022/04/29 02:48:55;;;;;;;8.70;4.47;;;4.60;99.90;;;;;;6223349;22;20016;-89
2022/04/29 02:51:21;;;;;;;5.67;3.47;;;4.50;99.90;;;;;;6249517;22;20448;-88
2022/04/29 02:53:47;;;;;;;3.90;3.37;;;6.20;99.90;;;;;;6197786;22;20452;-88
2022/04/29 02:56:13;;;;;;;8.10;4.10;;;4.60;99.90;;;;;;6197991;22;20047;-88
2022/04/29 02:58:39;;;;;;;3.22;2.90;;;5.90;99.90;;;;;;6222895;22;20068;-88
2022/04/29 03:01:04;;;;;;;4.27;3.33;;;4.50;99.90;;;;;;6223682;22;20022;-88
2022/04/29 03:03:31;;;;;;;4.75;3.33;;;4.50;99.90;;;;;;6223953;22;20534;-88
2022/04/29 03:05:57;;;;;;;4.30;3.40;;;3.90;99.90;;;;;;6223793;22;20015;-88
2022/04/29 03:08:23;;;;;;;7.70;3.93;;;4.60;99.90;;;;;;6223873;22;20019;-88
2022/04/29 03:10:48;;;;;;;4.07;2.83;;;4.60;99.90;;;;;;6223505;22;20324;-88
2022/04/29 03:13:15;;;;;;;4.97;4.40;;;6.10;99.90;;;;;;6198651;22;20016;-89
2022/04/29 03:15:41;;;;;;;6.63;3.83;;;5.70;99.90;;;;;;6222499;22;20016;-89
2022/04/29 03:18:18;;;;;;;6.27;3.77;;;4.60;99.90;;;;;;6223702;22;20325;-88
2022/04/29 03:20:44;;;;;;;;;;;5.30;99.90;;;;;;6224021;22;20347;-89
2022/04/29 03:23:11;;;;;;;7.65;3.83;;;6.20;99.90;;;;;;6223372;22;19915;-88
2022/04/29 03:25:37;;;;;;;4.07;2.80;;;4.50;99.90;;;;;;6172406;22;20103;-88
2022/04/29 03:28:07;;;;;;;10.77;3.78;;;5.60;99.90;;;;;;6224105;22;20047;-88
2022/04/29 03:30:35;;;;;;;4.85;3.28;;;4.50;99.90;;;;;;6199313;22;20098;-88
2022/04/29 03:33:03;;;;;;;4.75;3.63;;;4.40;99.90;;;;;;6174585;22;20028;-88
2022/04/29 03:35:29;;;;;;;4.13;3.40;;;4.40;99.90;;;;;;6222439;22;20526;-88
2022/04/29 03:37:55;;;;;;;5.13;3.55;;;4.50;99.90;;;;;;6198113;22;20016;-89
2022/04/29 03:40:28;;;;;;;10.38;4.20;;;4.30;99.90;;;;;;6248270;22;20030;-88
2022/04/29 03:42:55;;;;;;;4.53;3.78;;;4.30;99.90;;;;;;6198547;22;20015;-88
2022/04/29 03:45:24;;;;;;;4.05;3.35;;;5.80;99.90;;;;;;6222383;22;20016;-88
2022/04/29 03:47:49;;;;;;;6.28;3.55;;;4.30;99.90;;;;;;6248611;22;20011;-88
2022/04/29 03:50:16;;;;;;;7.18;3.20;;;5.20;99.90;;;;;;6223219;22;20019;-88
2022/04/29 03:52:58;;;;;;;4.70;3.42;;;4.10;99.90;;;;;;6223284;22;20051;-88
2022/04/29 03:55:27;;;;;;;3.95;2.55;;;4.10;99.90;;;;;;6247631;22;20019;-88
2022/04/29 03:57:53;;;;;;;6.53;3.40;;;5.40;99.90;;;;;;6221905;22;20015;-90
2022/04/29 04:00:20;;;;;;;5.47;3.85;;;5.10;99.90;;;;;;6223833;22;20015;-88
2022/04/29 04:02:52;;;;;;;7.20;3.45;;;4.10;99.90;;;;;;6248292;22;20020;-89
2022/04/29 04:05:18;;;;;;;4.85;3.30;;;4.10;99.90;;;;;;6224310;22;20115;-88
2022/04/29 04:07:45;;;;;;;8.18;3.78;;;5.60;99.90;;;;;;6225250;22;20016;-88
2022/04/29 04:10:12;;;;;;;3.83;2.45;;;5.50;99.90;;;;;;6225321;22;20026;-88
2022/04/29 04:12:49;;;;;;;6.57;3.22;;;4.30;99.90;;;;;;6251037;22;20016;-89
2022/04/29 04:15:17;;;;;;;5.60;3.30;;;4.10;99.90;;;;;;6224295;22;20018;-88
2022/04/29 04:17:44;;;;;;;3.78;3.47;;;5.40;99.90;;;;;;6224947;22;20016;-89
2022/04/29 04:20:11;;;;;;;5.03;3.28;;;4.00;99.90;;;;;;6225614;22;20020;-88
2022/04/29 04:22:37;;;;;;;3.67;3.17;;;4.00;99.90;;;;;;6199829;22;20051;-88
2022/04/29 04:25:05;;;;;;;4.27;2.63;;;3.90;99.90;;;;;;6224781;22;20051;-90
2022/04/29 04:27:34;;;;;;;3.92;3.00;;;4.20;99.90;;;;;;6249641;22;20066;-88
2022/04/29 04:30:00;;;;;;;7.00;3.75;;;4.30;99.90;;;;;;6249881;22;20055;-88
2022/04/29 04:32:27;;;;;;;4.00;3.20;;;4.10;99.90;;;;;;6225092;22;20023;-88
2022/04/29 04:34:57;;;;;;;7.75;3.22;;;4.20;99.90;;;;;;6225034;22;20020;-88
2022/04/29 04:37:27;;;;;;;6.50;3.92;;;5.70;99.90;;;;;;6249941;22;20095;-88
2022/04/29 04:39:58;;;;;;;5.35;3.45;;;5.70;99.90;;;;;;6225144;22;20019;-88
2022/04/29 04:42:34;;;;;;;;;;;;;;;;;;;;;
2022/04/29 04:45:05;;;;;;;6.22;3.45;;;5.40;99.90;;;;;;6250245;22;20101;-88
2022/04/29 04:47:33;;;;;;;3.65;2.70;;;4.30;99.90;;;;;;6225021;22;20015;-88
2022/04/29 04:49:59;;;;;;;4.75;3.65;;;4.60;99.90;;;;;;6250013;22;20051;-87
2022/04/29 04:52:24;;;;;;;6.53;3.87;;;4.50;99.90;;;;;;6225145;22;20027;-88
2022/04/29 04:54:50;;;;;;;4.97;3.58;;;3.70;99.90;;;;;;6199868;22;20024;-88
2022/04/29 04:57:18;;;;;;;4.85;3.08;;;4.70;99.90;;;;;;6223712;22;20020;-88
2022/04/29 04:59:46;;;;;;;5.53;3.78;;;5.00;99.90;;;;;;6250009;22;20382;-88
2022/04/29 05:02:12;;;;;;;4.93;3.70;;;4.80;99.90;;;;;;6224929;22;20023;-88
2022/04/29 05:04:38;;;;;;;6.17;3.87;;;4.60;99.90;;;;;;6200248;22;20022;-88
2022/04/29 05:07:07;;;;;;;7.82;3.85;;;6.10;99.90;;;;;;6249658;22;20019;-88
2022/04/29 05:09:32;;;;;;;4.70;3.50;;;6.40;99.90;;;;;;6224437;22;20386;-88
2022/04/29 05:11:58;;;;;;;5.00;3.97;;;5.10;99.90;;;;;;6223730;22;20016;-88
2022/04/29 05:14:26;;;;;;;4.97;3.60;;;6.50;99.90;;;;;;6225171;22;20016;-88
2022/04/29 05:16:52;;;;;;;13.20;3.80;;;5.20;99.90;;;;;;6197799;22;20073;-88
2022/04/29 05:19:18;;;;;;;5.67;3.50;;;5.30;99.90;;;;;;6224982;22;20023;-89
2022/04/29 05:21:46;;;;;;;5.38;3.55;;;6.70;99.90;;;;;;6224519;22;20344;-88
2022/04/29 05:24:12;;;;;;;5.35;3.60;;;5.50;99.90;;;;;;6224531;22;20019;-88
2022/04/29 05:26:40;;;;;;;4.37;3.50;;;6.50;99.90;;;;;;6223929;22;20016;-88
2022/04/29 05:29:08;;;;;;;4.85;3.67;;;5.60;99.90;;;;;;6175170;22;20015;-89
2022/04/29 05:31:34;;;;;;;5.15;3.03;;;5.40;99.90;;;;;;6200040;22;20019;-89
2022/04/29 05:34:00;;;;;;;5.47;3.97;;;5.80;99.90;;;;;;6224110;22;20051;-88
2022/04/29 05:36:26;;;;;;;4.30;3.27;;;6.00;99.90;;;;;;6224759;22;20061;-88
2022/04/29 05:44:28;;;;;;;3.53;2.80;;;6.30;99.90;;;;;;6207646;22;20102;-88
2022/04/29 05:46:53;;;;;;;6.43;3.97;;;6.40;99.90;;;;;;6224065;22;20012;-89
2022/04/29 05:49:21;;;;;;;4.73;3.07;;;6.50;99.90;;;;;;6223795;22;20313;-88
2022/04/29 05:51:47;;;;;;;5.53;3.33;;;6.50;99.90;;;;;;6224456;22;20324;-88
2022/04/29 05:54:13;;;;;;;8.63;4.03;;;6.60;99.90;;;;;;6223918;22;20370;-88
2022/04/29 05:56:39;;;;;;;3.53;2.60;;;6.70;99.90;;;;;;6249008;22;20424;-89
2022/04/29 05:59:05;;;;;;;6.80;3.30;;;7.80;99.90;;;;;;6223080;22;20051;-88
2022/04/29 06:01:30;;;;;;;5.43;3.30;;;6.80;99.90;;;;;;6224428;22;20055;-88
2022/04/29 06:03:59;;;;;;;7.60;3.23;;;7.10;99.90;;;;;;6223638;22;20463;-89
2022/04/29 06:06:25;;;;;;;4.68;3.53;;;6.90;99.90;;;;;;6198849;22;20019;-88
2022/04/29 06:08:53;;;;;;;3.63;3.00;;;7.10;99.90;;;;;;6249718;22;20095;-88
2022/04/29 06:11:19;;;;;;;3.55;2.80;;;7.10;99.90;;;;;;6248988;22;20069;-88
2022/04/29 06:13:50;;;;;;;7.90;2.83;;;7.00;99.90;;;;;;6224546;22;20090;-88
2022/04/29 06:16:38;;;;;;;3.80;3.08;;;7.90;99.90;;;;;;6224196;22;20207;-90
2022/04/29 06:19:12;;;;;;;3.92;2.70;;;7.30;99.90;;;;;;6224146;22;20037;-92
2022/04/29 06:21:45;;;;;;;3.67;2.70;;;7.20;99.90;;;;;;6222734;22;20094;-90
2022/04/29 06:24:18;;;;;;;5.03;3.05;;;7.40;99.90;;;;;;6225455;22;20020;-91
2022/04/29 06:26:47;;;;;;;3.97;2.70;;;7.40;99.90;;;;;;6201489;22;20082;-92
2022/04/29 06:29:21;;;;;;;5.93;3.50;;;8.30;99.90;;;;;;6224610;22;20443;-91
2022/04/29 06:31:49;;;;;;;6.70;3.05;;;7.50;99.90;;;;;;6227013;22;20012;-89
2022/04/29 06:34:15;;;;;;;4.70;2.90;;;7.50;99.90;;;;;;6223637;22;20026;-90
2022/04/29 06:36:50;;;;;;;2.40;2.13;;;7.20;99.90;;;;;;6224517;22;20102;-90
2022/04/29 06:39:18;;;;;;;8.07;3.15;;;7.70;99.90;;;;;;6200741;22;20024;-85
2022/04/29 06:41:44;;;;;;;9.48;3.67;;;7.80;99.90;;;;;;6224816;22;20321;-89
2022/04/29 06:44:12;;;;;;;6.53;2.63;;;7.80;99.90;;;;;;6227621;22;20103;-96
2022/04/29 06:46:38;;;;;;;3.80;2.75;;;7.90;99.90;;;;;;6250975;22;20452;-88
2022/04/29 06:49:09;;;;;;;5.20;3.03;;;8.10;99.90;;;;;;6224118;22;20154;-89
2022/04/29 06:51:37;;;;;;;5.82;2.85;;;8.10;99.90;;;;;;6201743;22;20038;-89
2022/04/29 06:54:26;;;;;;;3.33;2.53;;;8.10;99.90;;;;;;6199645;22;20024;-93
2022/04/29 06:56:54;;;;;;;3.55;2.55;;;8.20;99.90;;;;;;6252897;22;20015;-94
2022/04/29 06:59:22;;;;;;;3.40;2.50;;;7.50;99.90;;;;;;6224859;22;20094;-95
2022/04/29 07:01:55;;;;;;;3.08;2.40;;;8.30;99.90;;;;;;6224436;22;20070;-94
2022/04/29 07:04:28;;;;;;;1.70;1.52;;;8.30;99.90;;;;;;6224330;22;20024;-94
2022/04/29 07:06:59;;;;;;;1.75;1.63;;;8.30;99.90;;;;;;6201057;22;20016;-95
2022/04/29 07:09:28;;;;;;;2.97;1.75;;;8.20;99.90;;;;;;6223647;22;20016;-92
2022/04/29 07:11:56;;;;;;;2.90;1.63;;;8.30;99.90;;;;;;6248783;22;20069;-93
2022/04/29 07:14:22;;;;;;;2.55;1.60;;;8.30;99.90;;;;;;6227848;22;20081;-93
2022/04/29 07:16:53;;;;;;;2.33;2.13;;;8.50;99.90;;;;;;6224534;22;20016;-89
2022/04/29 07:19:21;;;;;;;3.28;1.23;;;8.40;99.90;;;;;;6199569;22;20019;-89
2022/04/29 07:21:47;;;;;;;2.17;1.55;;;8.50;99.90;;;;;;6224081;22;20035;-93
2022/04/29 07:24:13;;;;;;;2.00;1.77;;;8.70;99.90;;;;;;6223780;22;20019;-90
2022/04/29 07:26:42;;;;;;;4.50;1.75;;;8.60;99.90;;;;;;6249026;22;20039;-91
2022/04/29 07:29:08;;;;;;;1.50;1.40;;;8.80;99.90;;;;;;6222510;22;20055;-93
2022/04/29 07:31:39;;;;;;;1.77;1.50;;;8.80;99.90;;;;;;6223739;22;20020;-93
2022/04/29 07:41:44;;;;;;;3.85;1.60;;;8.80;99.90;;;;;;6223074;22;20456;-92
2022/04/29 07:42:40;;;;;;;1.65;1.55;;;9.40;99.90;;;;;;6248721;22;20022;-90
2022/04/29 07:45:07;;;;;;;5.35;1.73;;;9.70;99.90;;;;;;6248066;22;20019;-90
2022/04/29 07:47:35;;;;;;;1.60;1.50;;;9.30;99.90;;;;;;6223081;22;20047;-91
2022/04/29 07:50:05;;;;;;;1.98;1.52;;;10.30;99.90;;;;;;6197903;22;20474;-87
2022/04/29 07:52:34;;;;;;;2.85;1.85;;;10.50;99.90;;;;;;6222590;22;20024;-92
2022/04/29 07:55:16;;;;;;;1.88;1.75;;;10.50;99.90;;;;;;6246752;22;20348;-90
2022/04/29 07:57:51;;;;;;;2.17;1.73;;;10.00;99.90;;;;;;6225402;22;20023;-90
2022/04/29 08:00:17;;;;;;;8.00;2.00;;;9.60;99.90;;;;;;6221955;22;20023;-90
2022/04/29 08:02:43;;;;;;;1.95;1.83;;;10.60;99.90;;;;;;6222604;22;20022;-89
2022/04/29 08:05:09;;;;;;;5.38;1.33;;;10.50;99.90;;;;;;6248296;22;20016;-89
2022/04/29 08:07:40;;;;;;;4.15;2.33;;;10.60;99.90;;;;;;6222935;22;20097;-92
2022/04/29 08:10:09;;;;;;;5.07;2.03;;;10.70;99.90;;;;;;6197732;22;20444;-89
2022/04/29 08:12:39;;;;;;;2.03;1.83;;;10.60;99.90;;;;;;6221716;22;20482;-90
2022/04/29 08:15:05;;;;;;;3.00;1.65;;;10.70;99.90;;;;;;6247689;22;20020;-91
2022/04/29 08:17:34;;;;;;;2.08;1.42;;;10.80;99.90;;;;;;6274513;22;20026;-91
2022/04/29 08:20:00;;;;;;;3.30;1.98;;;11.00;99.90;;;;;;6199400;22;20028;-92
2022/04/29 08:22:30;;;;;;;2.80;1.98;;;11.10;99.90;;;;;;6222749;22;20026;-91
2022/04/29 08:25:01;;;;;;;2.15;1.70;;;11.30;99.90;;;;;;6220976;22;20027;-93
2022/04/29 08:27:34;;;;;;;3.92;1.60;;;11.60;99.90;;;;;;6221479;22;20023;-91
2022/04/29 08:30:06;;;;;;;5.07;1.85;;;12.10;99.90;;;;;;6224261;22;20582;-94
2022/04/29 08:32:46;;;;;;;3.40;1.52;;;12.40;99.90;;;;;;6223178;22;20019;-93
2022/04/29 08:35:16;;;;;;;3.10;1.60;;;12.70;99.90;;;;;;6251689;22;20023;-94
2022/04/29 08:37:43;;;;;;;2.42;1.58;;;12.80;99.90;;;;;;6248302;22;20375;-91
2022/04/29 08:40:11;;;;;;;1.83;1.42;;;12.70;99.90;;;;;;6249723;22;20035;-89
2022/04/29 08:42:56;;;;;;;1.98;1.48;;;12.60;99.90;;;;;;6225320;22;20024;-89
2022/04/29 08:45:23;;;;;;;2.75;2.35;;;12.60;99.90;;;;;;6224466;22;20020;-90
2022/04/29 08:47:51;;;;;;;2.00;1.27;;;12.50;99.90;;;;;;6224498;22;20452;-90
2022/04/29 08:50:21;;;;;;;2.42;1.00;;;12.60;99.90;;;;;;6223824;22;20016;-93
2022/04/29 08:52:50;;;;;;;1.60;1.50;;;12.60;99.90;;;;;;6249329;22;20012;-88
2022/04/29 09:00:48;;;;;;;2.38;1.58;;;12.10;99.90;;;;;;6249003;22;20022;-88
2022/04/29 09:03:16;;;;;;;1.63;1.52;;;11.90;99.90;;;;;;6225210;22;20069;-86
2022/04/29 09:05:42;;;;;;;1.45;1.25;;;11.90;99.90;;;;;;6250042;22;20016;-85
2022/04/29 09:08:11;;;;;;;;;;;11.70;99.90;;;;;;6227164;22;20016;-92
2022/04/29 09:10:38;;;;;;;2.45;1.50;;;11.70;99.90;;;;;;6225081;22;19954;-92
2022/04/29 09:13:18;;;;;;;2.03;1.20;;;11.70;99.90;;;;;;6226301;22;20016;-92
2022/04/29 09:15:49;;;;;;;1.63;1.52;;;11.70;99.90;;;;;;6251500;22;20020;-92
2022/04/29 09:18:39;;;;;;;2.30;1.17;;;11.70;99.90;;;;;;6252138;22;20529;-93
2022/04/29 09:21:11;;;;;;;2.03;1.83;;;11.80;99.90;;;;;;6250568;22;20015;-94
2022/04/29 09:23:54;;;;;;;1.85;1.35;;;11.90;99.90;;;;;;6224726;22;20019;-93
2022/04/29 09:26:32;;;;;;;2.78;2.15;;;12.00;99.90;;;;;;6225985;22;20077;-92
2022/04/29 09:29:15;;;;;;;1.52;1.42;;;12.00;99.90;;;;;;6252701;22;20015;-93
2022/04/29 09:31:54;;;;;;;1.83;1.20;;;12.00;99.90;;;;;;6252800;22;20057;-93
2022/04/29 09:34:44;;;;;;;2.13;1.33;;;12.00;99.90;;;;;;6249749;22;20016;-94
2022/04/29 09:37:17;;;;;;;2.15;1.65;;;12.00;99.90;;;;;;6251446;22;20447;-94
2022/04/29 09:39:53;;;;;;;1.63;1.40;;;12.00;99.90;;;;;;6224448;22;20022;-92
2022/04/29 09:42:18;;;;;;;2.45;1.20;;;11.90;99.90;;;;;;6251705;22;20007;-86
2022/04/29 09:44:45;;;;;;;3.28;1.70;;;11.80;99.90;;;;;;6248558;22;20111;-88
2022/04/29 09:47:15;;;;;;;1.90;1.63;;;11.90;99.90;;;;;;6249779;22;20019;-88
2022/04/29 09:50:04;;;;;;;3.33;1.63;;;11.90;99.90;;;;;;6224622;22;20102;-88
2022/04/29 09:52:30;;;;;;;2.15;1.40;;;11.90;99.90;;;;;;6249644;22;20011;-91
2022/04/29 09:55:21;;;;;;;;;;;;;;;;;;;;;
2022/04/29 10:00:26;;;;;;;4.78;1.30;;;11.80;99.90;;;;;;6252842;22;20020;-96
2022/04/29 10:02:52;;;;;;;1.48;1.38;;;11.60;99.90;;;;;;6222734;23;20012;-96
2022/04/29 10:05:18;;;;;;;1.42;1.33;;;11.50;99.90;;;;;;6196454;23;20062;-95
2022/04/29 10:07:49;;;;;;;1.33;1.17;;;12.20;99.90;;;;;;6171005;23;20015;-94
2022/04/29 10:10:23;;;;;;;2.88;1.30;;;11.30;99.90;;;;;;6171634;23;20016;-92
2022/04/29 10:12:54;;;;;;;1.20;1.10;;;11.30;99.90;;;;;;6171791;23;20016;-92
2022/04/29 10:15:24;;;;;;;1.48;1.27;;;11.20;99.90;;;;;;6194843;23;20023;-93
2022/04/29 10:23:28;;;;;;;1.42;1.27;;;11.30;99.90;;;;;;6220734;23;20012;-92
2022/04/29 10:25:55;;;;;;;3.70;1.55;;;11.30;99.90;;;;;;6197187;23;20048;-91
2022/04/29 10:28:23;;;;;;;1.60;1.40;;;11.30;99.90;;;;;;6253853;23;20008;-89
2022/04/29 10:31:06;;;;;;;1.70;1.60;;;11.40;99.90;;;;;;6170455;23;20016;-96
2022/04/29 10:33:36;;;;;;;2.22;1.67;;;11.40;99.90;;;;;;6220696;23;20012;-96
2022/04/29 10:36:14;;;;;;;2.50;1.23;;;11.40;99.90;;;;;;6196602;23;20016;-91
2022/04/29 10:38:44;;;;;;;1.77;1.65;;;11.30;99.90;;;;;;6195856;23;20012;-92
2022/04/29 10:41:39;;;;;;;3.55;2.20;;;11.30;99.90;;;;;;6195299;23;20050;-94
2022/04/29 10:44:08;;;;;;;1.50;1.40;;;11.20;99.90;;;;;;6221067;23;20070;-96
2022/04/29 10:46:43;;;;;;;1.73;1.60;;;12.00;99.90;;;;;;6199081;23;20012;-95
2022/04/29 10:49:38;;;;;;;3.55;1.75;;;11.00;99.90;;;;;;6197004;23;20084;-95
2022/04/29 10:52:14;;;;;;;2.70;2.22;;;11.10;99.90;;;;;;6183499;23;20091;-95
2022/04/29 10:55:00;;;;;;;1.55;1.40;;;11.10;99.90;;;;;;6200273;23;20016;-93
2022/04/29 10:57:42;;;;;;;2.08;1.88;;;11.00;99.90;;;;;;6198042;23;20015;-96
2022/04/29 11:00:13;;;;;;;2.20;1.67;;;11.30;99.90;;;;;;6207466;23;20004;-93
2022/04/29 11:02:39;;;;;;;2.47;1.70;;;11.00;99.90;;;;;;6202273;23;20030;-96
2022/04/29 11:05:55;;;;;;;1.73;1.60;;;11.10;99.90;;;;;;6250200;22;20007;-96
2022/04/29 11:08:29;;;;;;;1.88;1.63;;;11.10;99.90;;;;;;6223110;22;20091;-94
2022/04/29 11:11:14;;;;;;;2.80;2.13;;;11.20;99.90;;;;;;6253255;22;20480;-94
2022/04/29 11:13:59;;;;;;;2.67;2.28;;;11.30;99.90;;;;;;6228365;22;20008;-96
2022/04/29 11:17:16;;;;;;;7.35;2.67;;;11.30;99.90;;;;;;6224787;22;20019;-93
2022/04/29 11:19:48;;;;;;;2.17;1.98;;;10.20;99.90;;;;;;6250493;22;20091;-92
2022/04/29 11:25:04;;;;;;;3.00;2.25;;;11.30;99.90;;;;;;6228869;22;20020;-93
2022/04/29 11:27:37;;;;;;;;;;;11.10;99.90;;;;;;6250730;22;20026;-94
2022/04/29 11:30:07;;;;;;;2.58;2.10;;;11.20;99.90;;;;;;6225256;22;19915;-94
2022/04/29 11:32:45;;;;;;;4.70;2.72;;;10.10;99.90;;;;;;6249933;22;20096;-92
2022/04/29 11:35:11;;;;;;;2.40;2.10;;;11.30;99.90;;;;;;6224945;22;20069;-91
2022/04/29 11:37:36;;;;;;;21.83;8.07;;;11.20;99.90;;;;;;6224679;22;20023;-93
2022/04/29 11:40:05;;;;;;;4.10;1.90;;;11.10;99.90;;;;;;6224612;22;20016;-92
2022/04/29 11:42:31;;;;;;;2.75;2.55;;;11.10;99.90;;;;;;6224351;22;20016;-92
2022/04/29 11:45:05;;;;;;;4.07;2.38;;;11.10;99.90;;;;;;6224876;22;20050;-91
2022/04/29 11:47:34;;;;;;;5.15;1.92;;;11.20;99.90;;;;;;6224794;22;20593;-92
2022/04/29 11:50:04;;;;;;;2.50;2.30;;;11.10;99.90;;;;;;6250093;22;20011;-92
2022/04/29 11:52:36;;;;;;;2.45;2.17;;;11.10;99.90;;;;;;6199670;22;20030;-92
2022/04/29 11:55:11;;;;;;;3.08;2.30;;;11.20;99.90;;;;;;6250166;22;20439;-92
2022/04/29 11:58:21;;;;;;;3.95;1.88;;;11.30;99.90;;;;;;6251188;22;20073;-92
2022/04/29 12:00:55;;;;;;;2.55;1.92;;;11.40;99.90;;;;;;6249710;22;20023;-92
2022/04/29 12:06:29;;;;;;;2.78;2.10;;;10.90;99.90;;;;;;6249911;22;20024;-91
2022/04/29 12:08:55;;;;;;;2.70;2.15;;;12.20;99.90;;;;;;6250258;22;20444;-92
2022/04/29 12:11:28;;;;;;;3.72;2.15;;;11.50;99.90;;;;;;6226286;22;20016;-95
2022/04/29 12:13:54;;;;;;;2.17;1.95;;;10.60;99.90;;;;;;6250408;22;20012;-91
2022/04/29 12:16:23;;;;;;;2.65;2.40;;;11.50;99.90;;;;;;6224192;22;20011;-96
2022/04/29 12:18:50;;;;;;;4.50;2.90;;;11.50;99.90;;;;;;6249385;22;20351;-93
2022/04/29 12:21:36;;;;;;;9.55;1.80;;;11.60;99.90;;;;;;6224128;22;20016;-94
2022/04/29 12:24:18;;;;;;;6.95;2.72;;;11.00;99.90;;;;;;6224869;22;20068;-93
2022/04/29 12:27:06;;;;;;;1.35;1.25;;;11.40;99.90;;;;;;6226921;22;20012;-92
2022/04/29 12:29:36;;;;;;;3.17;2.00;;;12.00;99.90;;;;;;6251603;22;20095;-95
2022/04/29 12:35:13;;;;;;;3.22;1.83;;;11.30;99.90;;;;;;6251351;22;20028;-93
2022/04/29 12:37:51;;;;;;;3.90;1.90;;;11.30;99.90;;;;;;6226729;22;20012;-94
2022/04/29 12:40:26;;;;;;;2.58;2.25;;;11.40;99.90;;;;;;6252111;22;20012;-94
2022/04/29 12:42:52;;;;;;;2.40;2.20;;;11.50;99.90;;;;;;6226871;22;20022;-96
2022/04/29 12:45:27;;;;;;;5.53;2.80;;;11.50;99.90;;;;;;6213731;22;20016;-96
2022/04/29 12:48:27;;;;;;;2.08;1.80;;;11.70;99.90;;;;;;6231461;22;20456;-92
2022/04/29 12:50:53;;;;;;;2.03;1.77;;;11.70;99.90;;;;;;6229013;22;20448;-93
2022/04/29 12:53:18;;;;;;;4.73;4.33;;;11.80;99.90;;;;;;6225730;22;20022;-92
2022/04/29 12:55:49;;;;;;;5.57;2.07;;;11.90;99.90;;;;;;6251365;22;20074;-90
2022/04/29 12:58:15;;;;;;;2.95;2.53;;;12.00;99.90;;;;;;6225700;22;20026;-89
2022/04/29 13:00:42;;;;;;;;;;;11.90;99.90;;;;;;6251821;22;20018;-90
2022/04/29 13:03:18;;;;;;;4.65;1.77;;;11.90;99.90;;;;;;6250708;22;19915;-91
2022/04/29 13:05:44;;;;;;;5.20;2.83;;;12.00;99.90;;;;;;6251432;22;20016;-89
2022/04/29 13:08:12;;;;;;;1.77;1.67;;;11.90;99.90;;;;;;6225174;22;20072;-89
2022/04/29 13:10:42;;;;;;;5.57;3.00;;;12.00;99.90;;;;;;6251047;22;20370;-87
2022/04/29 13:13:08;;;;;;;2.42;1.73;;;12.00;99.90;;;;;;6251143;22;20012;-86
2022/04/29 13:15:38;;;;;;;1.63;1.53;;;12.10;99.90;;;;;;6251667;22;20034;-91
2022/04/29 13:18:06;;;;;;;2.33;2.03;;;12.20;99.90;;;;;;6249502;22;20012;-89
2022/04/29 13:20:32;;;;;;;2.45;1.88;;;12.30;99.90;;;;;;6225174;22;20079;-88
2022/04/29 13:22:58;;;;;;;3.10;2.07;;;12.70;99.90;;;;;;6225061;22;20012;-87
2022/04/29 13:25:23;;;;;;;2.27;1.70;;;12.70;99.90;;;;;;6225135;22;20050;-87
2022/04/29 13:27:49;;;;;;;3.27;2.57;;;12.80;99.90;;;;;;6249754;22;20030;-88
2022/04/29 13:30:15;;;;;;;4.47;2.30;;;12.80;99.90;;;;;;6224991;22;20020;-88
2022/04/29 13:32:41;;;;;;;2.13;1.73;;;12.90;99.90;;;;;;6200001;22;20016;-85
2022/04/29 13:35:08;;;;;;;3.00;2.03;;;13.10;99.90;;;;;;6225168;22;20081;-87
2022/04/29 13:37:36;;;;;;;4.85;2.78;;;13.30;99.90;;;;;;6199871;22;20094;-89
2022/04/29 13:40:08;;;;;;;2.17;1.98;;;13.50;99.90;;;;;;6224861;22;20008;-88
2022/04/29 13:42:34;;;;;;;3.55;1.88;;;13.60;99.90;;;;;;6250273;22;20090;-90
2022/04/29 13:45:02;;;;;;;3.72;2.00;;;13.70;99.90;;;;;;6225011;22;20470;-91